sensor_id;sensor_type;location;lat;lon;timestamp;P1;durP1;ratioP1;P2;durP2;ratioP2
8407;SDS011;4241;48.452;9.216;2023-01-29T00:01:12;145.50;;;64.00;;
8407;SDS011;4241;48.452;9.216;2023-01-29T00:03:39;137.57;;;59.73;;
8407;SDS011;4241;48.452;9.216;2023-01-29T00:06:06;138.40;;;60.67;;
8407;SDS011;4241;48.452;9.216;2023-01-29T00:08:36;139.03;;;60.63;;
8407;SDS011;4241;48.452;9.216;2023-01-29T00:11:04;138.43;;;60.80;;
8407;SDS011;4241;48.452;9.216;2023-01-29T00:13:32;140.17;;;60.70;;
8407;SDS011;4241;48.452;9.216;2023-01-29T00:15:59;137.60;;;60.33;;
8407;SDS011;4241;48.452;9.216;2023-01-29T00:18:26;141.23;;;63.03;;
8407;SDS011;4241;48.452;9.216;2023-01-29T00:20:54;137.07;;;59.80;;
8407;SDS011;4241;48.452;9.216;2023-01-29T00:23:21;137.43;;;59.80;;
8407;SDS011;4241;48.452;9.216;2023-01-29T00:25:49;150.30;;;66.33;;
8407;SDS011;4241;48.452;9.216;2023-01-29T00:28:16;139.03;;;60.70;;
8407;SDS011;4241;48.452;9.216;2023-01-29T00:30:43;138.77;;;60.40;;
8407;SDS011;4241;48.452;9.216;2023-01-29T00:33:10;138.10;;;60.23;;
8407;SDS011;4241;48.452;9.216;2023-01-29T00:35:39;143.43;;;63.10;;
8407;SDS011;4241;48.452;9.216;2023-01-29T00:38:06;139.27;;;60.93;;
8407;SDS011;4241;48.452;9.216;2023-01-29T00:40:35;140.37;;;61.23;;
8407;SDS011;4241;48.452;9.216;2023-01-29T00:43:19;138.30;;;60.80;;
8407;SDS011;4241;48.452;9.216;2023-01-29T00:46:03;135.10;;;59.77;;
8407;SDS011;4241;48.452;9.216;2023-01-29T00:48:31;139.13;;;60.97;;
8407;SDS011;4241;48.452;9.216;2023-01-29T00:50:58;138.10;;;60.33;;
8407;SDS011;4241;48.452;9.216;2023-01-29T00:53:25;138.13;;;60.23;;
8407;SDS011;4241;48.452;9.216;2023-01-29T00:55:52;148.57;;;65.53;;
8407;SDS011;4241;48.452;9.216;2023-01-29T00:58:20;139.60;;;60.37;;
8407;SDS011;4241;48.452;9.216;2023-01-29T01:00:59;138.57;;;60.20;;
8407;SDS011;4241;48.452;9.216;2023-01-29T01:03:27;139.77;;;60.93;;
8407;SDS011;4241;48.452;9.216;2023-01-29T01:06:03;144.93;;;63.27;;
8407;SDS011;4241;48.452;9.216;2023-01-29T01:08:31;140.00;;;61.23;;
8407;SDS011;4241;48.452;9.216;2023-01-29T01:11:15;135.17;;;59.13;;
8407;SDS011;4241;48.452;9.216;2023-01-29T01:13:43;136.13;;;59.70;;
8407;SDS011;4241;48.452;9.216;2023-01-29T01:16:11;138.20;;;60.57;;
8407;SDS011;4241;48.452;9.216;2023-01-29T01:18:38;141.00;;;60.83;;
8407;SDS011;4241;48.452;9.216;2023-01-29T01:21:05;139.50;;;59.97;;
8407;SDS011;4241;48.452;9.216;2023-01-29T01:23:32;139.97;;;60.67;;
8407;SDS011;4241;48.452;9.216;2023-01-29T01:25:59;142.90;;;61.63;;
8407;SDS011;4241;48.452;9.216;2023-01-29T01:28:26;140.67;;;60.67;;
8407;SDS011;4241;48.452;9.216;2023-01-29T01:30:55;140.47;;;60.83;;
8407;SDS011;4241;48.452;9.216;2023-01-29T01:33:21;145.23;;;62.70;;
8407;SDS011;4241;48.452;9.216;2023-01-29T01:35:49;151.83;;;66.03;;
8407;SDS011;4241;48.452;9.216;2023-01-29T01:38:15;142.27;;;60.97;;
8407;SDS011;4241;48.452;9.216;2023-01-29T01:40:43;141.83;;;60.93;;
8407;SDS011;4241;48.452;9.216;2023-01-29T01:43:11;144.10;;;62.80;;
8407;SDS011;4241;48.452;9.216;2023-01-29T01:45:38;149.73;;;65.10;;
8407;SDS011;4241;48.452;9.216;2023-01-29T01:48:08;144.10;;;62.37;;
8407;SDS011;4241;48.452;9.216;2023-01-29T01:50:42;168.53;;;74.07;;
8407;SDS011;4241;48.452;9.216;2023-01-29T01:53:12;143.87;;;62.00;;
8407;SDS011;4241;48.452;9.216;2023-01-29T01:55:42;154.27;;;67.33;;
8407;SDS011;4241;48.452;9.216;2023-01-29T01:58:14;145.10;;;62.60;;
8407;SDS011;4241;48.452;9.216;2023-01-29T02:00:46;144.97;;;61.73;;
8407;SDS011;4241;48.452;9.216;2023-01-29T02:03:14;143.40;;;61.83;;
8407;SDS011;4241;48.452;9.216;2023-01-29T02:06:02;141.97;;;60.77;;
8407;SDS011;4241;48.452;9.216;2023-01-29T02:08:48;144.07;;;62.13;;
8407;SDS011;4241;48.452;9.216;2023-01-29T02:11:38;143.00;;;60.90;;
8407;SDS011;4241;48.452;9.216;2023-01-29T02:14:07;145.73;;;62.50;;
8407;SDS011;4241;48.452;9.216;2023-01-29T02:16:34;159.43;;;69.60;;
8407;SDS011;4241;48.452;9.216;2023-01-29T02:19:03;145.53;;;63.27;;
8407;SDS011;4241;48.452;9.216;2023-01-29T02:24:58;136.73;;;60.10;;
8407;SDS011;4241;48.452;9.216;2023-01-29T02:27:39;139.77;;;61.37;;
8407;SDS011;4241;48.452;9.216;2023-01-29T02:30:30;134.73;;;58.63;;
8407;SDS011;4241;48.452;9.216;2023-01-29T02:33:04;138.73;;;59.97;;
8407;SDS011;4241;48.452;9.216;2023-01-29T02:35:39;140.37;;;61.07;;
8407;SDS011;4241;48.452;9.216;2023-01-29T02:38:10;139.97;;;60.60;;
8407;SDS011;4241;48.452;9.216;2023-01-29T02:40:43;139.40;;;60.03;;
8407;SDS011;4241;48.452;9.216;2023-01-29T02:43:19;139.10;;;60.00;;
8407;SDS011;4241;48.452;9.216;2023-01-29T02:46:01;139.10;;;59.77;;
8407;SDS011;4241;48.452;9.216;2023-01-29T02:48:35;141.03;;;60.97;;
8407;SDS011;4241;48.452;9.216;2023-01-29T02:51:07;142.17;;;61.00;;
8407;SDS011;4241;48.452;9.216;2023-01-29T02:53:40;140.63;;;61.07;;
8407;SDS011;4241;48.452;9.216;2023-01-29T02:56:14;140.13;;;60.60;;
8407;SDS011;4241;48.452;9.216;2023-01-29T02:58:44;140.63;;;60.47;;
8407;SDS011;4241;48.452;9.216;2023-01-29T03:01:15;142.53;;;60.73;;
8407;SDS011;4241;48.452;9.216;2023-01-29T03:03:46;142.40;;;61.17;;
8407;SDS011;4241;48.452;9.216;2023-01-29T03:06:18;142.73;;;61.07;;
8407;SDS011;4241;48.452;9.216;2023-01-29T03:08:49;141.63;;;60.67;;
8407;SDS011;4241;48.452;9.216;2023-01-29T03:11:20;145.40;;;63.00;;
8407;SDS011;4241;48.452;9.216;2023-01-29T03:13:48;141.47;;;60.47;;
8407;SDS011;4241;48.452;9.216;2023-01-29T03:16:20;142.33;;;61.23;;
8407;SDS011;4241;48.452;9.216;2023-01-29T03:18:53;144.70;;;62.57;;
8407;SDS011;4241;48.452;9.216;2023-01-29T03:21:24;142.63;;;61.20;;
8407;SDS011;4241;48.452;9.216;2023-01-29T03:24:24;136.30;;;59.70;;
8407;SDS011;4241;48.452;9.216;2023-01-29T03:27:13;140.23;;;60.63;;
8407;SDS011;4241;48.452;9.216;2023-01-29T03:30:00;142.40;;;62.50;;
8407;SDS011;4241;48.452;9.216;2023-01-29T03:32:48;139.60;;;60.40;;
8407;SDS011;4241;48.452;9.216;2023-01-29T03:35:17;141.73;;;61.37;;
8407;SDS011;4241;48.452;9.216;2023-01-29T03:38:00;138.03;;;60.13;;
8407;SDS011;4241;48.452;9.216;2023-01-29T03:40:28;139.73;;;60.20;;
8407;SDS011;4241;48.452;9.216;2023-01-29T03:43:04;156.47;;;68.80;;
8407;SDS011;4241;48.452;9.216;2023-01-29T03:45:38;142.30;;;62.07;;
8407;SDS011;4241;48.452;9.216;2023-01-29T03:48:15;140.70;;;61.47;;
8407;SDS011;4241;48.452;9.216;2023-01-29T03:50:53;139.17;;;60.50;;
8407;SDS011;4241;48.452;9.216;2023-01-29T03:53:27;140.17;;;61.17;;
8407;SDS011;4241;48.452;9.216;2023-01-29T03:56:03;138.50;;;59.73;;
8407;SDS011;4241;48.452;9.216;2023-01-29T03:58:33;137.20;;;60.10;;
8407;SDS011;4241;48.452;9.216;2023-01-29T04:01:06;138.10;;;60.13;;
8407;SDS011;4241;48.452;9.216;2023-01-29T04:03:42;138.60;;;60.17;;
8407;SDS011;4241;48.452;9.216;2023-01-29T04:06:15;136.87;;;60.20;;
8407;SDS011;4241;48.452;9.216;2023-01-29T04:08:46;136.43;;;58.83;;
8407;SDS011;4241;48.452;9.216;2023-01-29T04:11:17;137.67;;;60.13;;
8407;SDS011;4241;48.452;9.216;2023-01-29T04:13:45;141.37;;;62.07;;
8407;SDS011;4241;48.452;9.216;2023-01-29T04:16:13;137.47;;;59.73;;
8407;SDS011;4241;48.452;9.216;2023-01-29T04:18:45;146.43;;;64.63;;
8407;SDS011;4241;48.452;9.216;2023-01-29T04:21:12;138.63;;;60.53;;
8407;SDS011;4241;48.452;9.216;2023-01-29T04:23:40;137.87;;;60.10;;
8407;SDS011;4241;48.452;9.216;2023-01-29T04:29:13;135.67;;;60.13;;
8407;SDS011;4241;48.452;9.216;2023-01-29T04:31:48;138.87;;;61.67;;
8407;SDS011;4241;48.452;9.216;2023-01-29T04:34:24;135.97;;;60.17;;
8407;SDS011;4241;48.452;9.216;2023-01-29T04:36:56;137.30;;;60.63;;
8407;SDS011;4241;48.452;9.216;2023-01-29T04:39:33;139.40;;;61.50;;
8407;SDS011;4241;48.452;9.216;2023-01-29T04:42:09;136.70;;;60.33;;
8407;SDS011;4241;48.452;9.216;2023-01-29T04:44:41;137.57;;;60.83;;
8407;SDS011;4241;48.452;9.216;2023-01-29T04:47:15;137.13;;;60.53;;
8407;SDS011;4241;48.452;9.216;2023-01-29T04:49:48;138.13;;;60.70;;
8407;SDS011;4241;48.452;9.216;2023-01-29T04:52:26;134.23;;;58.97;;
8407;SDS011;4241;48.452;9.216;2023-01-29T04:55:04;134.27;;;58.83;;
8407;SDS011;4241;48.452;9.216;2023-01-29T04:57:39;138.23;;;60.90;;
8407;SDS011;4241;48.452;9.216;2023-01-29T05:00:14;132.90;;;59.37;;
8407;SDS011;4241;48.452;9.216;2023-01-29T05:02:43;133.27;;;59.03;;
8407;SDS011;4241;48.452;9.216;2023-01-29T05:05:13;134.07;;;59.97;;
8407;SDS011;4241;48.452;9.216;2023-01-29T05:07:43;131.40;;;58.10;;
8407;SDS011;4241;48.452;9.216;2023-01-29T05:10:11;136.27;;;60.83;;
8407;SDS011;4241;48.452;9.216;2023-01-29T05:12:42;135.47;;;60.07;;
8407;SDS011;4241;48.452;9.216;2023-01-29T05:15:12;133.20;;;59.00;;
8407;SDS011;4241;48.452;9.216;2023-01-29T05:17:42;135.10;;;59.87;;
8407;SDS011;4241;48.452;9.216;2023-01-29T05:20:10;139.33;;;61.50;;
8407;SDS011;4241;48.452;9.216;2023-01-29T05:22:40;135.43;;;59.70;;
8407;SDS011;4241;48.452;9.216;2023-01-29T05:25:11;136.37;;;60.17;;
8407;SDS011;4241;48.452;9.216;2023-01-29T05:27:47;134.07;;;60.33;;
8407;SDS011;4241;48.452;9.216;2023-01-29T05:30:29;134.63;;;59.80;;
8407;SDS011;4241;48.452;9.216;2023-01-29T05:32:57;134.23;;;58.90;;
8407;SDS011;4241;48.452;9.216;2023-01-29T05:35:24;139.70;;;61.57;;
8407;SDS011;4241;48.452;9.216;2023-01-29T05:37:53;138.47;;;61.47;;
8407;SDS011;4241;48.452;9.216;2023-01-29T05:40:20;132.63;;;59.03;;
8407;SDS011;4241;48.452;9.216;2023-01-29T05:42:47;133.13;;;58.87;;
8407;SDS011;4241;48.452;9.216;2023-01-29T05:45:15;137.43;;;60.33;;
8407;SDS011;4241;48.452;9.216;2023-01-29T05:47:41;134.37;;;59.73;;
8407;SDS011;4241;48.452;9.216;2023-01-29T05:50:09;139.10;;;61.57;;
8407;SDS011;4241;48.452;9.216;2023-01-29T05:52:36;133.17;;;58.93;;
8407;SDS011;4241;48.452;9.216;2023-01-29T05:55:05;156.10;;;70.07;;
8407;SDS011;4241;48.452;9.216;2023-01-29T05:57:33;161.80;;;72.50;;
8407;SDS011;4241;48.452;9.216;2023-01-29T06:00:00;163.67;;;73.30;;
8407;SDS011;4241;48.452;9.216;2023-01-29T06:02:28;162.63;;;73.00;;
8407;SDS011;4241;48.452;9.216;2023-01-29T06:04:55;160.97;;;72.77;;
8407;SDS011;4241;48.452;9.216;2023-01-29T06:07:22;162.00;;;73.17;;
8407;SDS011;4241;48.452;9.216;2023-01-29T06:09:49;153.90;;;68.53;;
8407;SDS011;4241;48.452;9.216;2023-01-29T06:12:17;160.03;;;71.27;;
8407;SDS011;4241;48.452;9.216;2023-01-29T06:14:44;157.60;;;70.20;;
8407;SDS011;4241;48.452;9.216;2023-01-29T06:17:13;163.07;;;72.77;;
8407;SDS011;4241;48.452;9.216;2023-01-29T06:19:40;160.17;;;71.20;;
8407;SDS011;4241;48.452;9.216;2023-01-29T06:22:07;153.27;;;68.53;;
8407;SDS011;4241;48.452;9.216;2023-01-29T06:24:33;157.47;;;70.80;;
8407;SDS011;4241;48.452;9.216;2023-01-29T06:27:00;154.67;;;70.03;;
8407;SDS011;4241;48.452;9.216;2023-01-29T06:29:28;149.43;;;67.00;;
8407;SDS011;4241;48.452;9.216;2023-01-29T06:31:55;158.97;;;71.47;;
8407;SDS011;4241;48.452;9.216;2023-01-29T06:34:22;152.33;;;68.17;;
8407;SDS011;4241;48.452;9.216;2023-01-29T06:36:49;155.73;;;69.77;;
8407;SDS011;4241;48.452;9.216;2023-01-29T06:39:15;163.17;;;73.40;;
8407;SDS011;4241;48.452;9.216;2023-01-29T06:41:42;159.03;;;71.10;;
8407;SDS011;4241;48.452;9.216;2023-01-29T06:44:10;160.90;;;71.80;;
8407;SDS011;4241;48.452;9.216;2023-01-29T06:46:38;156.83;;;70.97;;
8407;SDS011;4241;48.452;9.216;2023-01-29T06:49:05;156.50;;;70.87;;
8407;SDS011;4241;48.452;9.216;2023-01-29T06:51:32;156.90;;;71.47;;
8407;SDS011;4241;48.452;9.216;2023-01-29T06:53:58;155.33;;;69.40;;
8407;SDS011;4241;48.452;9.216;2023-01-29T06:56:25;158.40;;;71.73;;
8407;SDS011;4241;48.452;9.216;2023-01-29T06:58:52;155.00;;;70.43;;
8407;SDS011;4241;48.452;9.216;2023-01-29T07:01:19;159.90;;;72.53;;
8407;SDS011;4241;48.452;9.216;2023-01-29T07:03:49;154.53;;;69.90;;
8407;SDS011;4241;48.452;9.216;2023-01-29T07:06:16;154.20;;;68.53;;
8407;SDS011;4241;48.452;9.216;2023-01-29T07:08:42;156.27;;;71.80;;
8407;SDS011;4241;48.452;9.216;2023-01-29T07:11:09;147.93;;;66.53;;
8407;SDS011;4241;48.452;9.216;2023-01-29T07:13:36;157.03;;;70.93;;
8407;SDS011;4241;48.452;9.216;2023-01-29T07:16:04;153.50;;;70.43;;
8407;SDS011;4241;48.452;9.216;2023-01-29T07:18:31;154.43;;;69.73;;
8407;SDS011;4241;48.452;9.216;2023-01-29T07:21:02;135.13;;;60.33;;
8407;SDS011;4241;48.452;9.216;2023-01-29T07:23:30;159.23;;;72.40;;
8407;SDS011;4241;48.452;9.216;2023-01-29T07:25:59;153.97;;;69.70;;
8407;SDS011;4241;48.452;9.216;2023-01-29T07:28:27;151.77;;;68.30;;
8407;SDS011;4241;48.452;9.216;2023-01-29T07:30:54;152.87;;;68.57;;
8407;SDS011;4241;48.452;9.216;2023-01-29T07:33:22;153.13;;;68.97;;
8407;SDS011;4241;48.452;9.216;2023-01-29T07:35:49;150.90;;;67.30;;
8407;SDS011;4241;48.452;9.216;2023-01-29T07:38:17;155.40;;;70.07;;
8407;SDS011;4241;48.452;9.216;2023-01-29T07:40:44;160.37;;;73.43;;
8407;SDS011;4241;48.452;9.216;2023-01-29T07:43:12;156.83;;;70.43;;
8407;SDS011;4241;48.452;9.216;2023-01-29T07:45:39;167.07;;;75.33;;
8407;SDS011;4241;48.452;9.216;2023-01-29T07:48:06;153.33;;;69.57;;
8407;SDS011;4241;48.452;9.216;2023-01-29T07:50:36;150.67;;;68.67;;
8407;SDS011;4241;48.452;9.216;2023-01-29T07:53:03;156.63;;;71.03;;
8407;SDS011;4241;48.452;9.216;2023-01-29T07:55:32;158.57;;;71.47;;
8407;SDS011;4241;48.452;9.216;2023-01-29T07:57:59;157.10;;;71.57;;
8407;SDS011;4241;48.452;9.216;2023-01-29T08:00:27;162.90;;;73.20;;
8407;SDS011;4241;48.452;9.216;2023-01-29T08:03:00;159.77;;;71.50;;
8407;SDS011;4241;48.452;9.216;2023-01-29T08:05:27;156.57;;;70.47;;
8407;SDS011;4241;48.452;9.216;2023-01-29T08:07:54;161.47;;;72.00;;
8407;SDS011;4241;48.452;9.216;2023-01-29T08:10:20;167.77;;;76.30;;
8407;SDS011;4241;48.452;9.216;2023-01-29T08:12:53;160.87;;;71.87;;
8407;SDS011;4241;48.452;9.216;2023-01-29T08:15:20;157.00;;;70.20;;
8407;SDS011;4241;48.452;9.216;2023-01-29T08:17:48;161.90;;;73.73;;
8407;SDS011;4241;48.452;9.216;2023-01-29T08:20:15;164.53;;;73.87;;
8407;SDS011;4241;48.452;9.216;2023-01-29T08:22:45;146.93;;;65.53;;
8407;SDS011;4241;48.452;9.216;2023-01-29T08:25:12;159.67;;;71.57;;
8407;SDS011;4241;48.452;9.216;2023-01-29T08:27:39;160.33;;;71.67;;
8407;SDS011;4241;48.452;9.216;2023-01-29T08:30:08;160.97;;;71.50;;
8407;SDS011;4241;48.452;9.216;2023-01-29T08:32:36;161.33;;;72.93;;
8407;SDS011;4241;48.452;9.216;2023-01-29T08:35:03;160.90;;;72.23;;
8407;SDS011;4241;48.452;9.216;2023-01-29T08:37:30;142.90;;;62.30;;
8407;SDS011;4241;48.452;9.216;2023-01-29T08:39:58;168.40;;;74.40;;
8407;SDS011;4241;48.452;9.216;2023-01-29T08:42:25;164.17;;;72.70;;
8407;SDS011;4241;48.452;9.216;2023-01-29T08:44:52;168.87;;;73.50;;
8407;SDS011;4241;48.452;9.216;2023-01-29T08:47:20;169.70;;;74.43;;
8407;SDS011;4241;48.452;9.216;2023-01-29T08:49:47;171.07;;;75.50;;
8407;SDS011;4241;48.452;9.216;2023-01-29T08:52:13;171.17;;;74.67;;
8407;SDS011;4241;48.452;9.216;2023-01-29T08:54:40;180.30;;;77.53;;
8407;SDS011;4241;48.452;9.216;2023-01-29T08:57:07;176.17;;;76.53;;
8407;SDS011;4241;48.452;9.216;2023-01-29T08:59:34;172.50;;;74.47;;
8407;SDS011;4241;48.452;9.216;2023-01-29T09:02:01;175.90;;;76.37;;
8407;SDS011;4241;48.452;9.216;2023-01-29T09:04:29;173.47;;;74.23;;
8407;SDS011;4241;48.452;9.216;2023-01-29T09:06:55;188.90;;;80.33;;
8407;SDS011;4241;48.452;9.216;2023-01-29T09:09:22;178.70;;;75.00;;
8407;SDS011;4241;48.452;9.216;2023-01-29T09:11:49;190.47;;;80.10;;
8407;SDS011;4241;48.452;9.216;2023-01-29T09:14:16;195.00;;;81.37;;
8407;SDS011;4241;48.452;9.216;2023-01-29T09:16:43;197.63;;;82.33;;
8407;SDS011;4241;48.452;9.216;2023-01-29T09:19:10;191.13;;;79.20;;
8407;SDS011;4241;48.452;9.216;2023-01-29T09:21:38;185.70;;;77.17;;
8407;SDS011;4241;48.452;9.216;2023-01-29T09:24:05;191.53;;;80.07;;
8407;SDS011;4241;48.452;9.216;2023-01-29T09:26:32;195.00;;;81.53;;
8407;SDS011;4241;48.452;9.216;2023-01-29T09:28:58;188.80;;;79.00;;
8407;SDS011;4241;48.452;9.216;2023-01-29T09:31:25;194.33;;;80.33;;
8407;SDS011;4241;48.452;9.216;2023-01-29T09:33:52;174.30;;;70.40;;
8407;SDS011;4241;48.452;9.216;2023-01-29T09:36:19;195.20;;;81.00;;
8407;SDS011;4241;48.452;9.216;2023-01-29T09:38:47;194.50;;;80.53;;
8407;SDS011;4241;48.452;9.216;2023-01-29T09:41:17;193.47;;;79.23;;
8407;SDS011;4241;48.452;9.216;2023-01-29T09:43:54;190.40;;;78.57;;
8407;SDS011;4241;48.452;9.216;2023-01-29T09:46:26;195.17;;;81.33;;
8407;SDS011;4241;48.452;9.216;2023-01-29T09:49:00;187.60;;;77.80;;
8407;SDS011;4241;48.452;9.216;2023-01-29T09:51:33;195.67;;;80.53;;
8407;SDS011;4241;48.452;9.216;2023-01-29T09:54:15;192.87;;;80.27;;
8407;SDS011;4241;48.452;9.216;2023-01-29T09:56:46;193.83;;;80.03;;
8407;SDS011;4241;48.452;9.216;2023-01-29T09:59:15;190.43;;;78.93;;
8407;SDS011;4241;48.452;9.216;2023-01-29T10:01:48;205.73;;;84.60;;
8407;SDS011;4241;48.452;9.216;2023-01-29T10:04:27;192.57;;;80.00;;
8407;SDS011;4241;48.452;9.216;2023-01-29T10:10:28;191.80;;;79.67;;
8407;SDS011;4241;48.452;9.216;2023-01-29T10:13:10;190.30;;;78.77;;
8407;SDS011;4241;48.452;9.216;2023-01-29T10:15:48;210.53;;;88.20;;
8407;SDS011;4241;48.452;9.216;2023-01-29T10:21:27;194.80;;;80.40;;
8407;SDS011;4241;48.452;9.216;2023-01-29T10:24:06;194.37;;;79.97;;
8407;SDS011;4241;48.452;9.216;2023-01-29T10:26:44;202.57;;;83.73;;
8407;SDS011;4241;48.452;9.216;2023-01-29T10:29:12;194.50;;;79.57;;
8407;SDS011;4241;48.452;9.216;2023-01-29T10:31:43;191.20;;;78.20;;
8407;SDS011;4241;48.452;9.216;2023-01-29T10:34:13;195.07;;;79.57;;
8407;SDS011;4241;48.452;9.216;2023-01-29T10:36:44;195.47;;;80.33;;
8407;SDS011;4241;48.452;9.216;2023-01-29T10:39:14;199.00;;;81.43;;
8407;SDS011;4241;48.452;9.216;2023-01-29T10:41:51;197.13;;;79.73;;
8407;SDS011;4241;48.452;9.216;2023-01-29T10:44:42;199.77;;;81.83;;
8407;SDS011;4241;48.452;9.216;2023-01-29T10:47:22;200.57;;;81.93;;
8407;SDS011;4241;48.452;9.216;2023-01-29T10:50:16;204.77;;;83.10;;
8407;SDS011;4241;48.452;9.216;2023-01-29T10:52:50;199.03;;;81.07;;
8407;SDS011;4241;48.452;9.216;2023-01-29T10:55:36;194.63;;;77.60;;
8407;SDS011;4241;48.452;9.216;2023-01-29T10:58:16;207.57;;;83.03;;
8407;SDS011;4241;48.452;9.216;2023-01-29T11:00:51;209.70;;;83.30;;
8407;SDS011;4241;48.452;9.216;2023-01-29T11:03:20;214.17;;;85.70;;
8407;SDS011;4241;48.452;9.216;2023-01-29T11:05:50;229.40;;;91.80;;
8407;SDS011;4241;48.452;9.216;2023-01-29T11:08:22;221.03;;;87.77;;
8407;SDS011;4241;48.452;9.216;2023-01-29T11:10:53;216.87;;;84.40;;
8407;SDS011;4241;48.452;9.216;2023-01-29T11:13:30;224.93;;;86.63;;
8407;SDS011;4241;48.452;9.216;2023-01-29T11:16:02;205.67;;;77.80;;
8407;SDS011;4241;48.452;9.216;2023-01-29T11:18:37;225.87;;;87.17;;
8407;SDS011;4241;48.452;9.216;2023-01-29T11:21:14;235.77;;;92.80;;
8407;SDS011;4241;48.452;9.216;2023-01-29T11:23:41;230.70;;;89.27;;
8407;SDS011;4241;48.452;9.216;2023-01-29T11:26:09;235.23;;;90.70;;
8407;SDS011;4241;48.452;9.216;2023-01-29T11:28:40;237.30;;;91.37;;
8407;SDS011;4241;48.452;9.216;2023-01-29T11:31:14;239.10;;;92.27;;
8407;SDS011;4241;48.452;9.216;2023-01-29T11:33:42;209.23;;;78.03;;
8407;SDS011;4241;48.452;9.216;2023-01-29T11:36:20;238.00;;;91.83;;
8407;SDS011;4241;48.452;9.216;2023-01-29T11:39:04;237.70;;;91.17;;
8407;SDS011;4241;48.452;9.216;2023-01-29T11:41:45;231.87;;;90.10;;
8407;SDS011;4241;48.452;9.216;2023-01-29T11:44:19;239.60;;;92.57;;
8407;SDS011;4241;48.452;9.216;2023-01-29T11:46:47;235.03;;;92.47;;
8407;SDS011;4241;48.452;9.216;2023-01-29T11:49:22;233.23;;;91.27;;
8407;SDS011;4241;48.452;9.216;2023-01-29T11:51:57;198.50;;;74.30;;
8407;SDS011;4241;48.452;9.216;2023-01-29T11:54:27;199.80;;;75.40;;
8407;SDS011;4241;48.452;9.216;2023-01-29T11:56:57;195.70;;;74.97;;
8407;SDS011;4241;48.452;9.216;2023-01-29T11:59:39;198.20;;;74.87;;
8407;SDS011;4241;48.452;9.216;2023-01-29T12:02:16;196.77;;;73.67;;
8407;SDS011;4241;48.452;9.216;2023-01-29T12:04:54;199.40;;;74.87;;
8407;SDS011;4241;48.452;9.216;2023-01-29T12:07:23;205.00;;;77.00;;
8407;SDS011;4241;48.452;9.216;2023-01-29T12:09:51;204.73;;;77.17;;
8407;SDS011;4241;48.452;9.216;2023-01-29T12:12:30;198.40;;;74.77;;
8407;SDS011;4241;48.452;9.216;2023-01-29T12:15:21;201.63;;;75.60;;
8407;SDS011;4241;48.452;9.216;2023-01-29T12:18:00;203.63;;;76.67;;
8407;SDS011;4241;48.452;9.216;2023-01-29T12:20:34;205.50;;;76.80;;
8407;SDS011;4241;48.452;9.216;2023-01-29T12:23:10;208.70;;;78.17;;
8407;SDS011;4241;48.452;9.216;2023-01-29T12:25:49;214.97;;;82.40;;
8407;SDS011;4241;48.452;9.216;2023-01-29T12:31:23;201.07;;;75.13;;
8407;SDS011;4241;48.452;9.216;2023-01-29T12:33:56;210.63;;;78.93;;
8407;SDS011;4241;48.452;9.216;2023-01-29T12:36:27;205.77;;;76.67;;
8407;SDS011;4241;48.452;9.216;2023-01-29T12:38:58;204.20;;;75.70;;
8407;SDS011;4241;48.452;9.216;2023-01-29T12:41:29;205.07;;;75.67;;
8407;SDS011;4241;48.452;9.216;2023-01-29T12:44:01;200.27;;;75.47;;
8407;SDS011;4241;48.452;9.216;2023-01-29T12:46:36;203.53;;;76.47;;
8407;SDS011;4241;48.452;9.216;2023-01-29T12:49:07;201.20;;;76.83;;
8407;SDS011;4241;48.452;9.216;2023-01-29T12:51:39;197.10;;;73.87;;
8407;SDS011;4241;48.452;9.216;2023-01-29T12:54:13;204.50;;;76.20;;
8407;SDS011;4241;48.452;9.216;2023-01-29T12:56:45;203.23;;;76.50;;
8407;SDS011;4241;48.452;9.216;2023-01-29T12:59:14;207.90;;;77.87;;
8407;SDS011;4241;48.452;9.216;2023-01-29T13:01:47;212.83;;;78.80;;
8407;SDS011;4241;48.452;9.216;2023-01-29T13:04:21;213.27;;;79.50;;
8407;SDS011;4241;48.452;9.216;2023-01-29T13:06:58;210.87;;;78.37;;
8407;SDS011;4241;48.452;9.216;2023-01-29T13:09:38;214.63;;;80.57;;
8407;SDS011;4241;48.452;9.216;2023-01-29T13:12:10;216.50;;;80.50;;
8407;SDS011;4241;48.452;9.216;2023-01-29T13:14:41;217.07;;;79.93;;
8407;SDS011;4241;48.452;9.216;2023-01-29T13:17:14;216.63;;;79.20;;
8407;SDS011;4241;48.452;9.216;2023-01-29T13:19:47;212.23;;;78.20;;
8407;SDS011;4241;48.452;9.216;2023-01-29T13:22:18;212.03;;;78.87;;
8407;SDS011;4241;48.452;9.216;2023-01-29T13:24:47;208.87;;;77.33;;
8407;SDS011;4241;48.452;9.216;2023-01-29T13:27:18;209.00;;;78.23;;
8407;SDS011;4241;48.452;9.216;2023-01-29T13:29:47;207.10;;;77.13;;
8407;SDS011;4241;48.452;9.216;2023-01-29T13:32:19;212.20;;;79.47;;
8407;SDS011;4241;48.452;9.216;2023-01-29T13:34:49;209.83;;;78.87;;
8407;SDS011;4241;48.452;9.216;2023-01-29T13:37:18;208.20;;;76.80;;
8407;SDS011;4241;48.452;9.216;2023-01-29T13:39:52;207.20;;;76.77;;
8407;SDS011;4241;48.452;9.216;2023-01-29T13:42:20;211.33;;;78.77;;
8407;SDS011;4241;48.452;9.216;2023-01-29T13:44:50;208.33;;;77.57;;
8407;SDS011;4241;48.452;9.216;2023-01-29T13:47:25;207.40;;;77.07;;
8407;SDS011;4241;48.452;9.216;2023-01-29T13:49:54;205.53;;;76.77;;
8407;SDS011;4241;48.452;9.216;2023-01-29T13:52:28;206.43;;;77.47;;
8407;SDS011;4241;48.452;9.216;2023-01-29T13:55:01;203.77;;;77.03;;
8407;SDS011;4241;48.452;9.216;2023-01-29T13:57:44;209.57;;;79.20;;
8407;SDS011;4241;48.452;9.216;2023-01-29T14:06:35;206.07;;;77.03;;
8407;SDS011;4241;48.452;9.216;2023-01-29T14:12:32;209.60;;;78.63;;
8407;SDS011;4241;48.452;9.216;2023-01-29T14:18:05;204.27;;;75.50;;
8407;SDS011;4241;48.452;9.216;2023-01-29T14:20:55;205.73;;;77.70;;
8407;SDS011;4241;48.452;9.216;2023-01-29T14:23:34;203.80;;;76.67;;
8407;SDS011;4241;48.452;9.216;2023-01-29T14:26:17;202.17;;;76.03;;
8407;SDS011;4241;48.452;9.216;2023-01-29T14:28:55;201.33;;;75.53;;
8407;SDS011;4241;48.452;9.216;2023-01-29T14:31:35;202.97;;;75.67;;
8407;SDS011;4241;48.452;9.216;2023-01-29T14:34:06;202.87;;;75.87;;
8407;SDS011;4241;48.452;9.216;2023-01-29T14:36:44;203.97;;;76.23;;
8407;SDS011;4241;48.452;9.216;2023-01-29T14:39:26;205.97;;;76.27;;
8407;SDS011;4241;48.452;9.216;2023-01-29T14:42:00;203.50;;;75.87;;
8407;SDS011;4241;48.452;9.216;2023-01-29T14:44:45;203.53;;;76.57;;
8407;SDS011;4241;48.452;9.216;2023-01-29T14:50:45;193.93;;;73.40;;
8407;SDS011;4241;48.452;9.216;2023-01-29T14:53:17;200.53;;;76.37;;
8407;SDS011;4241;48.452;9.216;2023-01-29T14:55:49;205.97;;;79.40;;
8407;SDS011;4241;48.452;9.216;2023-01-29T14:58:22;202.40;;;76.47;;
8407;SDS011;4241;48.452;9.216;2023-01-29T15:00:54;207.10;;;77.93;;
8407;SDS011;4241;48.452;9.216;2023-01-29T15:03:27;202.00;;;75.50;;
8407;SDS011;4241;48.452;9.216;2023-01-29T15:06:01;205.50;;;76.70;;
8407;SDS011;4241;48.452;9.216;2023-01-29T15:08:34;201.13;;;75.13;;
8407;SDS011;4241;48.452;9.216;2023-01-29T15:11:06;207.80;;;77.90;;
8407;SDS011;4241;48.452;9.216;2023-01-29T15:14:00;198.90;;;74.97;;
8407;SDS011;4241;48.452;9.216;2023-01-29T15:16:38;196.57;;;73.80;;
8407;SDS011;4241;48.452;9.216;2023-01-29T15:19:12;197.10;;;75.27;;
8407;SDS011;4241;48.452;9.216;2023-01-29T15:24:46;190.67;;;73.97;;
8407;SDS011;4241;48.452;9.216;2023-01-29T15:27:26;189.47;;;73.17;;
8407;SDS011;4241;48.452;9.216;2023-01-29T15:29:55;194.30;;;75.37;;
8407;SDS011;4241;48.452;9.216;2023-01-29T15:32:25;185.50;;;71.57;;
8407;SDS011;4241;48.452;9.216;2023-01-29T15:34:54;185.33;;;71.43;;